createdAt,value
2023-05-16T00:00:35.321Z,95873.00
2023-05-16T00:04:41.227Z,95862.00
2023-05-16T00:08:46.898Z,95868.00
2023-05-16T00:12:51.908Z,95866.00
2023-05-16T00:16:55.462Z,95867.00
2023-05-16T00:21:00.331Z,95863.00
2023-05-16T00:25:05.342Z,95871.00
2023-05-16T00:29:10.983Z,95864.00
2023-05-16T00:33:17.050Z,95866.00
2023-05-16T00:37:20.056Z,95872.00
2023-05-16T00:41:26.414Z,95871.00
2023-05-16T00:45:29.667Z,95868.00
2023-05-16T00:49:32.963Z,95865.00
2023-05-16T00:53:39.816Z,95873.00
2023-05-16T00:57:45.401Z,95868.00
2023-05-16T01:01:49.253Z,95866.00
2023-05-16T01:05:54.128Z,95871.00
2023-05-16T01:10:01.211Z,95859.00
2023-05-16T01:14:22.879Z,95859.00
2023-05-16T01:18:32.160Z,95855.00
2023-05-16T01:22:47.836Z,95846.00
2023-05-16T01:26:54.137Z,95844.00
2023-05-16T01:31:00.839Z,95849.00
2023-05-16T01:35:04.164Z,95849.00
2023-05-16T01:39:16.277Z,95846.00
2023-05-16T01:43:41.914Z,95844.00
2023-05-16T01:47:50.068Z,95843.00
2023-05-16T01:51:58.039Z,95845.00
2023-05-16T01:56:06.734Z,95841.00
2023-05-16T02:00:14.428Z,95844.00
2023-05-16T02:04:30.194Z,95839.00
2023-05-16T02:08:38.923Z,95844.00
2023-05-16T02:12:44.924Z,95844.00
2023-05-16T02:16:49.720Z,95839.00
2023-05-16T02:20:53.091Z,95844.00
2023-05-16T02:24:56.494Z,95834.00
2023-05-16T02:29:00.910Z,95831.00
2023-05-16T02:33:12.450Z,95833.00
2023-05-16T02:37:15.646Z,95827.00
2023-05-16T02:41:22.475Z,95838.00
2023-05-16T02:45:26.209Z,95827.00
2023-05-16T02:49:30.791Z,95829.00
2023-05-16T02:53:36.116Z,95837.00
2023-05-16T02:57:42.139Z,95848.00
2023-05-16T03:01:47.124Z,95839.00
2023-05-16T03:05:52.634Z,95857.00
2023-05-16T03:09:55.622Z,95862.00
2023-05-16T03:14:01.513Z,95855.00
2023-05-16T03:18:07.524Z,95844.00
2023-05-16T03:22:14.544Z,95851.00
2023-05-16T03:26:17.696Z,95857.00
2023-05-16T03:30:26.518Z,95870.00
2023-05-16T03:34:29.691Z,95875.00
2023-05-16T03:38:38.316Z,95881.00
2023-05-16T03:42:42.458Z,95880.00
2023-05-16T03:46:48.170Z,95877.00
2023-05-16T03:50:51.481Z,95880.00
2023-05-16T03:54:58.996Z,95886.00
2023-05-16T03:59:02.045Z,95880.00
2023-05-16T04:03:07.809Z,95882.00
2023-05-16T04:07:11.043Z,95880.00
2023-05-16T04:11:15.570Z,95882.00
2023-05-16T04:15:18.913Z,95887.00
2023-05-16T04:19:22.110Z,95891.00
2023-05-16T04:23:25.179Z,95894.00
2023-05-16T04:27:30.797Z,95891.00
2023-05-16T04:31:37.244Z,95891.00
2023-05-16T04:35:40.493Z,95907.00
2023-05-16T04:39:47.843Z,95894.00
2023-05-16T04:43:52.331Z,95901.00
2023-05-16T04:47:57.294Z,95900.00
2023-05-16T04:52:00.562Z,95893.00
2023-05-16T04:56:05.871Z,95887.00
2023-05-16T05:00:17.848Z,95889.00
2023-05-16T05:04:22.873Z,95893.00
2023-05-16T05:08:26.299Z,95889.00
2023-05-16T05:12:31.449Z,95887.00
2023-05-16T05:16:37.515Z,95891.00
2023-05-16T05:20:41.557Z,95887.00
2023-05-16T05:24:44.925Z,95902.00
2023-05-16T05:28:57.334Z,95911.00
2023-05-16T05:33:10.684Z,95907.00
2023-05-16T05:37:13.778Z,95909.00
2023-05-16T05:41:17.495Z,95902.00
2023-05-16T05:45:20.654Z,95903.00
2023-05-16T05:49:26.713Z,95894.00
2023-05-16T05:53:29.913Z,95888.00
2023-05-16T05:57:32.956Z,95896.00
2023-05-16T06:01:36.051Z,95887.00
2023-05-16T06:05:43.599Z,95886.00
2023-05-16T06:09:46.853Z,95898.00
2023-05-16T06:13:50.132Z,95892.00
2023-05-16T06:17:55.942Z,95890.00
2023-05-16T06:22:02.184Z,95882.00
2023-05-16T06:26:05.807Z,95889.00
2023-05-16T06:30:12.709Z,95886.00
2023-05-16T06:34:15.726Z,95889.00
2023-05-16T06:38:20.935Z,95894.00
2023-05-16T06:42:24.026Z,95894.00
2023-05-16T06:46:28.526Z,95896.00
2023-05-16T06:50:32.136Z,95903.00
2023-05-16T06:54:37.659Z,95896.00
2023-05-16T06:58:43.428Z,95903.00
2023-05-16T07:02:46.523Z,95907.00
2023-05-16T07:06:52.919Z,95907.00
2023-05-16T07:10:57.339Z,95908.00
2023-05-16T07:15:02.291Z,95920.00
2023-05-16T07:19:05.535Z,95909.00
2023-05-16T07:23:10.962Z,95916.00
2023-05-16T07:27:15.764Z,95916.00
2023-05-16T07:31:19.125Z,95918.00
2023-05-16T07:35:22.309Z,95931.00
2023-05-16T07:39:25.586Z,95929.00
2023-05-16T07:43:30.373Z,95935.00
2023-05-16T07:47:33.475Z,95935.00
2023-05-16T07:51:38.851Z,95934.00
2023-05-16T07:55:42.532Z,95924.00
2023-05-16T07:59:47.172Z,95929.00
2023-05-16T08:03:50.438Z,95928.00
2023-05-16T08:07:55.127Z,95925.00
2023-05-16T08:11:58.231Z,95926.00
2023-05-16T08:16:03.765Z,95933.00
2023-05-16T08:20:09.706Z,95937.00
2023-05-16T08:24:12.940Z,95924.00
2023-05-16T08:28:16.731Z,95928.00
2023-05-16T08:32:22.418Z,95930.00
2023-05-16T08:36:26.278Z,95940.00
2023-05-16T08:40:31.721Z,95938.00
2023-05-16T08:44:37.664Z,95941.00
2023-05-16T08:48:46.298Z,95944.00
2023-05-16T08:52:58.205Z,95938.00
2023-05-16T08:57:05.562Z,95931.00
2023-05-16T09:01:11.212Z,95946.00
2023-05-16T09:05:19.139Z,95944.00
2023-05-16T09:09:26.267Z,95943.00
2023-05-16T09:13:29.271Z,95934.00
2023-05-16T09:17:40.200Z,95930.00
2023-05-16T09:21:46.127Z,95930.00
2023-05-16T09:25:51.903Z,95925.00
2023-05-16T09:29:58.748Z,95924.00
2023-05-16T09:34:04.164Z,95934.00
2023-05-16T09:38:18.798Z,95938.00
2023-05-16T09:42:23.347Z,95940.00
2023-05-16T09:46:33.107Z,95931.00
2023-05-16T09:50:37.145Z,95938.00
2023-05-16T09:54:42.008Z,95930.00
2023-05-16T09:58:47.486Z,95926.00
2023-05-16T10:02:52.213Z,95923.00
2023-05-16T10:06:57.912Z,95914.00
2023-05-16T10:11:02.689Z,95916.00
2023-05-16T10:15:07.786Z,95916.00
2023-05-16T10:19:12.513Z,95922.00
2023-05-16T10:23:18.890Z,95918.00
2023-05-16T10:27:24.521Z,95909.00
2023-05-16T10:31:27.849Z,95926.00
2023-05-16T10:35:31.454Z,95911.00
2023-05-16T10:39:35.117Z,95920.00
2023-05-16T10:43:44.536Z,95922.00
2023-05-16T10:47:55.266Z,95912.00
2023-05-16T10:52:09.553Z,95912.00
2023-05-16T10:56:15.707Z,95915.00
2023-05-16T11:00:24.905Z,95911.00
2023-05-16T11:04:47.301Z,95910.00
2023-05-16T11:09:05.522Z,95909.00
2023-05-16T11:13:09.651Z,95918.00
2023-05-16T11:17:18.084Z,95915.00
2023-05-16T11:21:24.310Z,95919.00
2023-05-16T11:25:41.403Z,95918.00
2023-05-16T11:29:45.889Z,95916.00
2023-05-16T11:33:50.649Z,95915.00
2023-05-16T11:37:53.820Z,95910.00
2023-05-16T11:41:58.261Z,95915.00
2023-05-16T11:46:04.683Z,95920.00
2023-05-16T11:50:14.029Z,95925.00
2023-05-16T11:54:20.295Z,95926.00
2023-05-16T11:58:24.277Z,95927.00
2023-05-16T12:02:30.456Z,95932.00
2023-05-16T12:06:35.237Z,95934.00
2023-05-16T12:10:38.641Z,95941.00
2023-05-16T12:14:42.081Z,95943.00
2023-05-16T12:18:45.580Z,95950.00
2023-05-16T12:22:50.349Z,95957.00
2023-05-16T12:26:54.972Z,95958.00
2023-05-16T12:30:58.039Z,95962.00
2023-05-16T12:35:03.346Z,95981.00
2023-05-16T12:39:09.305Z,95994.00
2023-05-16T12:43:17.643Z,95992.00
2023-05-16T12:47:28.462Z,96001.00
2023-05-16T12:51:35.597Z,95998.00
2023-05-16T12:55:40.287Z,95995.00
2023-05-16T12:59:43.460Z,95986.00
2023-05-16T13:03:51.429Z,95980.00
2023-05-16T13:07:57.131Z,95981.00
2023-05-16T13:12:01.869Z,95979.00
2023-05-16T13:16:05.209Z,95982.00
2023-05-16T13:20:10.194Z,95984.00
2023-05-16T13:24:14.995Z,95982.00
2023-05-16T13:28:22.054Z,95994.00
2023-05-16T13:32:25.386Z,95983.00
2023-05-16T13:36:29.923Z,95996.00
2023-05-16T13:40:39.116Z,95998.00
2023-05-16T13:44:45.925Z,95997.00
2023-05-16T13:48:53.219Z,95998.00
2023-05-16T13:52:56.327Z,95992.00
2023-05-16T13:56:59.392Z,96000.00
2023-05-16T14:01:09.929Z,95999.00
2023-05-16T14:05:13.172Z,95998.00
2023-05-16T14:09:17.019Z,95992.00
2023-05-16T14:13:20.094Z,96006.00
2023-05-16T14:17:24.614Z,96004.00
2023-05-16T14:21:32.630Z,96007.00
2023-05-16T14:25:36.310Z,96006.00
2023-05-16T14:29:39.329Z,96005.00
2023-05-16T14:33:48.434Z,96000.00
2023-05-16T14:37:51.932Z,96015.00
2023-05-16T14:41:55.258Z,96016.00
2023-05-16T14:45:58.890Z,96018.00
2023-05-16T14:50:04.426Z,96018.00
2023-05-16T14:54:10.445Z,96020.00
2023-05-16T14:58:13.475Z,96024.00
2023-05-16T15:02:18.839Z,96022.00
2023-05-16T15:06:28.508Z,96030.00
2023-05-16T15:10:31.788Z,96018.00
2023-05-16T15:14:41.368Z,96028.00
2023-05-16T15:18:46.141Z,96022.00
2023-05-16T15:22:54.650Z,96027.00
2023-05-16T15:26:57.919Z,96035.00
2023-05-16T15:31:02.145Z,96037.00
2023-05-16T15:35:09.574Z,96034.00
2023-05-16T15:39:15.396Z,96042.00
2023-05-16T15:43:18.394Z,96043.00
2023-05-16T15:47:25.115Z,96051.00
2023-05-16T15:51:28.206Z,96039.00
2023-05-16T15:55:32.964Z,96046.00
2023-05-16T15:59:36.707Z,96053.00
2023-05-16T16:03:46.363Z,96067.00
2023-05-16T16:07:49.635Z,96067.00
2023-05-16T16:11:56.722Z,96059.00
2023-05-16T16:15:59.902Z,96073.00
2023-05-16T16:20:07.559Z,96081.00
2023-05-16T16:24:13.019Z,96087.00
2023-05-16T16:28:17.700Z,96088.00
2023-05-16T16:32:20.750Z,96088.00
2023-05-16T16:36:24.936Z,96096.00
2023-05-16T16:40:36.184Z,96095.00
2023-05-16T16:44:40.619Z,96102.00
2023-05-16T16:48:48.060Z,96116.00
2023-05-16T16:52:54.917Z,96126.00
2023-05-16T16:56:59.781Z,96119.00
2023-05-16T17:01:06.984Z,96138.00
2023-05-16T17:05:14.728Z,96143.00
2023-05-16T17:09:19.658Z,96154.00
2023-05-16T17:13:22.691Z,96157.00
2023-05-16T17:17:28.424Z,96165.00
2023-05-16T17:21:34.642Z,96168.00
2023-05-16T17:25:39.290Z,96176.00
2023-05-16T17:29:42.742Z,96186.00
2023-05-16T17:33:47.166Z,96194.00
2023-05-16T17:37:52.186Z,96179.00
2023-05-16T17:42:04.591Z,96181.00
2023-05-16T17:46:07.701Z,96194.00
2023-05-16T17:50:12.798Z,96201.00
2023-05-16T17:54:21.433Z,96185.00
2023-05-16T17:58:24.849Z,96189.00
2023-05-16T18:02:30.718Z,96183.00
2023-05-16T18:06:39.365Z,96190.00
2023-05-16T18:14:53.316Z,96196.00
2023-05-16T18:18:59.122Z,96202.00
2023-05-16T18:23:03.644Z,96216.00
2023-05-16T18:27:07.259Z,96211.00
2023-05-16T18:31:10.747Z,96217.00
2023-05-16T18:35:18.334Z,96216.00
2023-05-16T18:39:23.138Z,96227.00
2023-05-16T18:43:26.351Z,96244.00
2023-05-16T18:47:31.980Z,96239.00
2023-05-16T18:51:35.243Z,96244.00
2023-05-16T18:55:40.074Z,96246.00
2023-05-16T18:59:43.930Z,96254.00
2023-05-16T19:03:47.141Z,96255.00
2023-05-16T19:07:50.326Z,96254.00
2023-05-16T19:11:54.760Z,96255.00
2023-05-16T19:16:01.305Z,96251.00
2023-05-16T19:20:12.064Z,96255.00
2023-05-16T19:24:18.184Z,96249.00
2023-05-16T19:28:22.963Z,96265.00
2023-05-16T19:32:26.281Z,96267.00
2023-05-16T19:36:29.894Z,96274.00
2023-05-16T19:40:34.113Z,96277.00
2023-05-16T19:44:38.587Z,96288.00
2023-05-16T19:48:45.317Z,96286.00
2023-05-16T19:52:48.474Z,96286.00
2023-05-16T19:56:54.619Z,96305.00
2023-05-16T20:01:00.975Z,96311.00
2023-05-16T20:05:04.870Z,96307.00
2023-05-16T20:09:11.332Z,96312.00
2023-05-16T20:13:20.896Z,96319.00
2023-05-16T20:17:27.581Z,96323.00
2023-05-16T20:21:34.097Z,96319.00
2023-05-16T20:25:40.857Z,96327.00
2023-05-16T20:29:45.105Z,96315.00
2023-05-16T20:33:50.364Z,96311.00
2023-05-16T20:37:56.825Z,96308.00
2023-05-16T20:42:00.097Z,96303.00
2023-05-16T20:46:05.291Z,96314.00
2023-05-16T20:50:14.136Z,96310.00
2023-05-16T20:54:17.213Z,96318.00
2023-05-16T20:58:23.206Z,96324.00
2023-05-16T21:02:30.268Z,96312.00
2023-05-16T21:06:37.753Z,96326.00
2023-05-16T21:10:40.961Z,96323.00
2023-05-16T21:14:46.723Z,96308.00
2023-05-16T21:18:51.920Z,96313.00
2023-05-16T21:22:56.780Z,96315.00
2023-05-16T21:27:05.521Z,96317.00
2023-05-16T21:31:10.678Z,96331.00
2023-05-16T21:35:14.093Z,96340.00
2023-05-16T21:39:18.528Z,96342.00
2023-05-16T21:43:21.988Z,96357.00
2023-05-16T21:47:27.494Z,96356.00
2023-05-16T21:51:30.872Z,96357.00
2023-05-16T21:55:35.487Z,96362.00
2023-05-16T21:59:38.551Z,96360.00
2023-05-16T22:03:41.728Z,96358.00
2023-05-16T22:07:44.799Z,96369.00
2023-05-16T22:11:50.614Z,96360.00
2023-05-16T22:16:04.150Z,96362.00
2023-05-16T22:20:12.111Z,96367.00
2023-05-16T22:24:17.524Z,96377.00
2023-05-16T22:28:21.975Z,96376.00
2023-05-16T22:32:26.187Z,96377.00
2023-05-16T22:36:36.344Z,96375.00
2023-05-16T22:40:41.150Z,96370.00
2023-05-16T22:44:45.738Z,96378.00
2023-05-16T22:48:51.893Z,96385.00
2023-05-16T22:52:54.936Z,96392.00
2023-05-16T22:56:57.987Z,96389.00
2023-05-16T23:01:02.787Z,96389.00
2023-05-16T23:05:06.619Z,96393.00
2023-05-16T23:09:09.735Z,96395.00
2023-05-16T23:13:15.352Z,96398.00
2023-05-16T23:17:19.906Z,96399.00
2023-05-16T23:21:24.565Z,96402.00
2023-05-16T23:25:27.804Z,96404.00
2023-05-16T23:29:33.861Z,96409.00
2023-05-16T23:33:40.669Z,96417.00
2023-05-16T23:37:48.569Z,96434.00
2023-05-16T23:41:54.484Z,96434.00
2023-05-16T23:46:02.442Z,96436.00
2023-05-16T23:50:10.418Z,96435.00
2023-05-16T23:54:15.997Z,96446.00
2023-05-16T23:58:20.804Z,96446.00
